Time;durP1;ratioP1;P1;durP2;ratioP2;P2;SDS_P1;SDS_P2;PMS_P1;PMS_P2;Temp;Humidity;BMP_temperature;BMP_pressure;BME280_temperature;BME280_humidity;BME280_pressure;Samples;Min_cycle;Max_cycle;Signal;HPM_P1;HPM_P2
2022/11/25 00:02:10;;;;;;;21.85;4.78;;;;;;;;;;5049863;28;20080;-68
2022/11/25 00:04:38;;;;;;;17.60;4.65;;;;;;;;;;5044468;28;20052;-67
2022/11/25 00:07:04;;;;;;;27.80;5.93;;;;;;;;;;5051996;28;20104;-68
2022/11/25 00:09:30;;;;;;;24.58;6.03;;;;;;;;;;5051477;28;20078;-66
2022/11/25 00:11:56;;;;;;;19.27;5.20;;;;;;;;;;5055419;28;20048;-67
2022/11/25 00:14:22;;;;;;;21.17;4.80;;;;;;;;;;5049439;28;20041;-67
2022/11/25 00:16:48;;;;;;;20.88;5.32;;;;;;;;;;5050127;28;22176;-67
2022/11/25 00:19:14;;;;;;;26.42;5.80;;;;;;;;;;5062303;28;20139;-67
2022/11/25 00:21:40;;;;;;;20.52;4.97;;;;;;;;;;5054470;28;20040;-67
2022/11/25 00:24:07;;;;;;;25.20;5.22;;;;;;;;;;5051394;28;20045;-67
2022/11/25 00:26:34;;;;;;;20.52;5.15;;;;;;;;;;5053696;28;20348;-67
2022/11/25 00:29:01;;;;;;;22.20;4.82;;;;;;;;;;5054297;28;20044;-67
2022/11/25 00:31:29;;;;;;;29.75;6.35;;;;;;;;;;5039529;28;20059;-67
2022/11/25 00:33:55;;;;;;;25.98;5.68;;;;;;;;;;5056206;28;20173;-67
2022/11/25 00:36:22;;;;;;;22.63;5.05;;;;;;;;;;5049851;28;20051;-68
2022/11/25 00:38:55;;;;;;;22.33;5.68;;;;;;;;;;5051772;28;20044;-68
2022/11/25 00:46:53;;;;;;;21.40;5.88;;;;;;;;;;5051923;28;21575;-67
2022/11/25 00:49:19;;;;;;;23.05;6.22;;;;;;;;;;5050307;28;20051;-67
2022/11/25 00:51:45;;;;;;;20.38;6.03;;;;;;;;;;5047421;28;20055;-67
2022/11/25 00:54:11;;;;;;;28.52;6.93;;;;;;;;;;5047399;28;20059;-68
2022/11/25 00:56:38;;;;;;;21.42;5.68;;;;;;;;;;5046507;28;20068;-68
2022/11/25 00:59:04;;;;;;;26.88;6.15;;;;;;;;;;5042224;28;20045;-68
2022/11/25 01:01:30;;;;;;;20.50;5.55;;;;;;;;;;5045753;28;20041;-67
2022/11/25 01:03:56;;;;;;;26.33;6.85;;;;;;;;;;5048665;28;20102;-68
2022/11/25 01:06:22;;;;;;;19.92;4.95;;;;;;;;;;5049661;28;20033;-68
2022/11/25 01:08:49;;;;;;;20.70;5.85;;;;;;;;;;5048963;28;20856;-68
2022/11/25 01:11:17;;;;;;;25.95;5.95;;;;;;;;;;5045154;28;20102;-68
2022/11/25 01:13:43;;;;;;;23.70;5.85;;;;;;;;;;5046143;28;22474;-69
2022/11/25 01:16:10;;;;;;;21.45;6.05;;;;;;;;;;5046159;28;20113;-68
2022/11/25 01:18:37;;;;;;;23.35;5.75;;;;;;;;;;5043920;28;20806;-67
2022/11/25 01:21:06;;;;;;;29.63;6.70;;;;;;;;;;5046960;28;20653;-67
2022/11/25 01:23:32;;;;;;;17.65;5.65;;;;;;;;;;5046493;28;20828;-67
2022/11/25 01:26:00;;;;;;;20.65;5.10;;;;;;;;;;5044454;28;20039;-68
2022/11/25 01:28:26;;;;;;;19.02;5.95;;;;;;;;;;5048444;28;20047;-67
2022/11/25 01:31:06;;;;;;;22.88;5.90;;;;;;;;;;5042426;28;20168;-67
2022/11/25 01:33:32;;;;;;;26.65;5.57;;;;;;;;;;5046139;28;20115;-67
2022/11/25 01:36:05;;;;;;;23.50;5.80;;;;;;;;;;5045827;28;20053;-67
2022/11/25 01:38:32;;;;;;;20.77;6.75;;;;;;;;;;5045161;28;20048;-67
2022/11/25 01:40:58;;;;;;;21.00;5.15;;;;;;;;;;5047470;28;20579;-68
2022/11/25 01:43:25;;;;;;;24.80;6.10;;;;;;;;;;5044617;28;21262;-67
2022/11/25 01:45:52;;;;;;;20.80;6.45;;;;;;;;;;5048312;28;20040;-67
2022/11/25 01:48:21;;;;;;;23.23;5.65;;;;;;;;;;5044088;28;20037;-67
2022/11/25 01:50:49;;;;;;;28.17;6.53;;;;;;;;;;5038724;28;20044;-67
2022/11/25 01:53:16;;;;;;;18.00;5.65;;;;;;;;;;5046396;28;20716;-67
2022/11/25 01:55:44;;;;;;;23.95;5.38;;;;;;;;;;5042845;28;20059;-67
2022/11/25 01:58:20;;;;;;;17.02;5.93;;;;;;;;;;5044571;28;20072;-67
2022/11/25 02:00:50;;;;;;;22.67;5.40;;;;;;;;;;5042304;28;20063;-67
2022/11/25 02:03:25;;;;;;;17.10;5.68;;;;;;;;;;5047548;28;20104;-67
2022/11/25 02:05:51;;;;;;;23.30;6.38;;;;;;;;;;5045631;28;20041;-68
2022/11/25 02:08:18;;;;;;;20.75;6.07;;;;;;;;;;5047596;28;20072;-67
2022/11/25 02:10:44;;;;;;;25.90;5.22;;;;;;;;;;5047836;28;20048;-67
2022/11/25 02:13:11;;;;;;;20.13;5.68;;;;;;;;;;5047092;28;20049;-68
2022/11/25 02:15:37;;;;;;;19.73;5.40;;;;;;;;;;5052349;28;20040;-68
2022/11/25 02:18:03;;;;;;;24.92;6.35;;;;;;;;;;5049086;28;20056;-68
2022/11/25 02:20:29;;;;;;;21.00;5.53;;;;;;;;;;5049808;28;20037;-68
2022/11/25 02:23:04;;;;;;;20.27;5.47;;;;;;;;;;5054344;28;20044;-68
2022/11/25 02:25:32;;;;;;;20.20;5.82;;;;;;;;;;5051672;28;20048;-68
2022/11/25 02:28:01;;;;;;;18.05;5.32;;;;;;;;;;5048416;28;20139;-67
2022/11/25 02:30:27;;;;;;;21.38;6.18;;;;;;;;;;5055231;28;20078;-67
2022/11/25 02:32:53;;;;;;;22.58;5.65;;;;;;;;;;5054883;28;20051;-67
2022/11/25 02:35:23;;;;;;;19.73;5.93;;;;;;;;;;5048357;28;20040;-68
2022/11/25 02:37:49;;;;;;;22.30;5.47;;;;;;;;;;5045843;28;20067;-67
2022/11/25 02:40:16;;;;;;;25.17;6.03;;;;;;;;;;5046549;28;20044;-67
2022/11/25 02:42:43;;;;;;;28.27;6.35;;;;;;;;;;5052425;28;20078;-67
2022/11/25 02:45:11;;;;;;;19.90;5.40;;;;;;;;;;5052198;28;20175;-68
2022/11/25 02:47:37;;;;;;;23.23;6.32;;;;;;;;;;5054823;28;20135;-68
2022/11/25 02:50:03;;;;;;;34.05;6.05;;;;;;;;;;5048978;28;21294;-68
2022/11/25 02:52:30;;;;;;;27.20;6.47;;;;;;;;;;5034217;28;20044;-67
2022/11/25 02:54:56;;;;;;;31.15;6.38;;;;;;;;;;5053313;28;20108;-67
2022/11/25 02:57:22;;;;;;;31.02;6.05;;;;;;;;;;5050085;28;20784;-67
2022/11/25 02:59:48;;;;;;;27.08;6.35;;;;;;;;;;5052227;28;20048;-68
2022/11/25 03:02:14;;;;;;;22.02;5.75;;;;;;;;;;5059369;28;20838;-68
2022/11/25 03:04:40;;;;;;;21.85;6.00;;;;;;;;;;5049638;28;20070;-68
2022/11/25 03:07:06;;;;;;;22.08;6.40;;;;;;;;;;5052180;28;20073;-68
2022/11/25 03:09:32;;;;;;;34.35;8.82;;;;;;;;;;5055645;28;20799;-69
2022/11/25 03:14:43;;;;;;;24.23;6.43;;;;;;;;;;5056994;28;20048;-70
2022/11/25 03:17:09;;;;;;;29.33;9.10;;;;;;;;;;5057166;28;20108;-70
2022/11/25 03:19:35;;;;;;;32.60;7.20;;;;;;;;;;5057660;28;20055;-70
2022/11/25 03:22:01;;;;;;;24.95;7.68;;;;;;;;;;5055523;28;20074;-70
2022/11/25 03:24:27;;;;;;;30.27;7.55;;;;;;;;;;5066012;28;20662;-70
2022/11/25 03:26:53;;;;;;;31.45;7.30;;;;;;;;;;5049414;28;20045;-70
2022/11/25 03:29:19;;;;;;;30.15;7.20;;;;;;;;;;5049599;28;20044;-70
2022/11/25 03:31:46;;;;;;;28.77;7.50;;;;;;;;;;5051474;28;20133;-70
2022/11/25 03:34:12;;;;;;;27.23;7.22;;;;;;;;;;5050396;28;20086;-69
2022/11/25 03:36:38;;;;;;;26.92;6.90;;;;;;;;;;5049667;28;20076;-70
2022/11/25 03:39:04;;;;;;;26.50;6.45;;;;;;;;;;5048224;28;20151;-70
2022/11/25 03:41:30;;;;;;;30.00;8.93;;;;;;;;;;5052831;28;20041;-69
2022/11/25 03:43:56;;;;;;;23.13;7.45;;;;;;;;;;5055543;28;20051;-69
2022/11/25 03:46:22;;;;;;;26.23;6.88;;;;;;;;;;5052866;28;20535;-69
2022/11/25 03:48:48;;;;;;;23.85;6.88;;;;;;;;;;5050070;28;20550;-69
2022/11/25 03:51:14;;;;;;;23.38;6.63;;;;;;;;;;5050641;28;21877;-69
2022/11/25 03:53:40;;;;;;;22.27;6.82;;;;;;;;;;5047608;28;20037;-68
2022/11/25 03:56:06;;;;;;;24.45;7.32;;;;;;;;;;5048261;28;20060;-68
2022/11/25 03:58:33;;;;;;;32.50;7.30;;;;;;;;;;5067887;28;20063;-70
2022/11/25 04:01:00;;;;;;;30.88;8.05;;;;;;;;;;5050749;28;20029;-69
2022/11/25 04:03:26;;;;;;;27.77;7.95;;;;;;;;;;5049713;28;20063;-70
2022/11/25 04:05:52;;;;;;;23.45;7.65;;;;;;;;;;5046951;28;20063;-70
2022/11/25 04:08:18;;;;;;;24.98;8.15;;;;;;;;;;5049106;28;20076;-70
2022/11/25 04:10:44;;;;;;;23.33;8.15;;;;;;;;;;5047161;28;20044;-70
2022/11/25 04:13:10;;;;;;;29.13;9.30;;;;;;;;;;5051597;28;20131;-70
2022/11/25 04:15:36;;;;;;;30.65;9.15;;;;;;;;;;5051938;28;20054;-69
2022/11/25 04:18:02;;;;;;;31.88;9.02;;;;;;;;;;5048485;28;20040;-70
2022/11/25 04:20:28;;;;;;;27.30;9.10;;;;;;;;;;5045738;28;20087;-70
2022/11/25 04:22:54;;;;;;;28.05;8.20;;;;;;;;;;5046633;28;20040;-69
2022/11/25 04:25:20;;;;;;;34.72;9.63;;;;;;;;;;5053747;28;20048;-70
2022/11/25 04:27:46;;;;;;;32.92;8.98;;;;;;;;;;5029783;28;20091;-70
2022/11/25 04:30:13;;;;;;;27.92;10.02;;;;;;;;;;5053643;28;20063;-69
2022/11/25 04:32:39;;;;;;;28.55;9.30;;;;;;;;;;5057361;28;20041;-69
2022/11/25 04:35:05;;;;;;;38.50;9.60;;;;;;;;;;5052745;28;20044;-70
2022/11/25 04:37:31;;;;;;;30.20;9.15;;;;;;;;;;5052686;28;20052;-70
2022/11/25 04:39:57;;;;;;;24.65;9.00;;;;;;;;;;5051548;28;20045;-69
2022/11/25 04:42:38;;;;;;;27.23;8.23;;;;;;;;;;5056259;28;20044;-70
2022/11/25 04:45:12;;;;;;;33.13;9.55;;;;;;;;;;5055443;28;20051;-70
2022/11/25 04:47:38;;;;;;;32.63;9.60;;;;;;;;;;5053531;28;20056;-68
2022/11/25 04:50:05;;;;;;;31.63;11.00;;;;;;;;;;5034921;28;20044;-69
2022/11/25 04:52:32;;;;;;;46.22;11.07;;;;;;;;;;5051363;28;20149;-70
2022/11/25 04:54:58;;;;;;;23.17;9.30;;;;;;;;;;5056053;28;20052;-70
2022/11/25 04:57:24;;;;;;;39.08;11.65;;;;;;;;;;5046889;28;20067;-70
2022/11/25 04:59:51;;;;;;;34.50;10.90;;;;;;;;;;5050961;28;22411;-70
2022/11/25 05:02:18;;;;;;;31.75;10.07;;;;;;;;;;5050401;28;20067;-70
2022/11/25 05:04:45;;;;;;;31.95;11.18;;;;;;;;;;5042502;28;20045;-70
2022/11/25 05:07:12;;;;;;;33.25;11.85;;;;;;;;;;5044025;28;20063;-70
2022/11/25 05:09:38;;;;;;;43.97;11.95;;;;;;;;;;5042779;28;22993;-70
2022/11/25 05:12:05;;;;;;;35.88;11.00;;;;;;;;;;5042071;28;20048;-70
2022/11/25 05:14:33;;;;;;;39.97;13.43;;;;;;;;;;5046656;28;20047;-70
2022/11/25 05:16:59;;;;;;;40.90;13.93;;;;;;;;;;5047877;28;20074;-70
2022/11/25 05:19:25;;;;;;;44.50;12.45;;;;;;;;;;5047760;28;20036;-70
2022/11/25 05:21:51;;;;;;;30.35;11.82;;;;;;;;;;5043414;28;20058;-70
2022/11/25 05:24:17;;;;;;;42.92;12.50;;;;;;;;;;5047795;28;22464;-70
2022/11/25 05:26:43;;;;;;;34.80;11.27;;;;;;;;;;5047378;28;20040;-70
2022/11/25 05:29:09;;;;;;;37.90;12.82;;;;;;;;;;5047898;28;20105;-70
2022/11/25 05:31:36;;;;;;;34.95;12.52;;;;;;;;;;5045005;28;20040;-70
2022/11/25 05:34:02;;;;;;;42.03;11.73;;;;;;;;;;5047564;28;20047;-70
2022/11/25 05:36:28;;;;;;;43.33;13.13;;;;;;;;;;5044114;28;20056;-70
2022/11/25 05:38:55;;;;;;;40.42;12.77;;;;;;;;;;5044628;28;20089;-70
2022/11/25 05:41:22;;;;;;;34.25;12.35;;;;;;;;;;5028913;28;20258;-69
2022/11/25 05:43:48;;;;;;;38.85;12.15;;;;;;;;;;5036390;28;20045;-70
2022/11/25 05:46:14;;;;;;;36.05;12.05;;;;;;;;;;5038412;28;20048;-69
2022/11/25 05:48:40;;;;;;;41.83;13.02;;;;;;;;;;5047396;28;20045;-70
2022/11/25 05:51:07;;;;;;;32.97;12.93;;;;;;;;;;5051770;28;20056;-70
2022/11/25 05:53:34;;;;;;;39.42;11.90;;;;;;;;;;5045428;28;20050;-70
2022/11/25 05:56:05;;;;;;;35.30;11.82;;;;;;;;;;5045432;28;20052;-70
2022/11/25 05:58:32;;;;;;;31.40;12.27;;;;;;;;;;5047740;28;20054;-69
2022/11/25 06:00:58;;;;;;;31.95;13.30;;;;;;;;;;5051422;28;20059;-71
2022/11/25 06:03:25;;;;;;;34.28;12.98;;;;;;;;;;5049918;28;20657;-71
2022/11/25 06:05:51;;;;;;;30.35;12.52;;;;;;;;;;5058431;28;20052;-71
2022/11/25 06:08:17;;;;;;;27.58;11.48;;;;;;;;;;5049567;28;23205;-71
2022/11/25 06:10:43;;;;;;;33.03;12.88;;;;;;;;;;5050726;28;20062;-66
2022/11/25 06:13:09;;;;;;;34.78;12.73;;;;;;;;;;5050962;28;20135;-67
2022/11/25 06:15:40;;;;;;;35.15;13.63;;;;;;;;;;5047047;28;20051;-67
2022/11/25 06:18:06;;;;;;;37.78;13.63;;;;;;;;;;5047051;28;20048;-69
2022/11/25 06:20:32;;;;;;;32.33;13.73;;;;;;;;;;5047467;28;20047;-68
2022/11/25 06:22:58;;;;;;;45.08;14.13;;;;;;;;;;5051158;28;20161;-69
2022/11/25 06:25:24;;;;;;;36.28;13.77;;;;;;;;;;5048723;28;20045;-69
2022/11/25 06:27:51;;;;;;;34.10;13.77;;;;;;;;;;5053595;28;20045;-69
2022/11/25 06:30:18;;;;;;;39.85;14.80;;;;;;;;;;5054656;28;20073;-68
2022/11/25 06:32:44;;;;;;;42.33;15.85;;;;;;;;;;5049352;28;20055;-69
2022/11/25 06:35:10;;;;;;;37.55;15.95;;;;;;;;;;5051406;28;20053;-69
2022/11/25 06:37:36;;;;;;;33.17;17.38;;;;;;;;;;5048582;28;20054;-68
2022/11/25 06:40:03;;;;;;;30.13;14.77;;;;;;;;;;5052755;28;20037;-68
2022/11/25 06:42:29;;;;;;;36.88;15.68;;;;;;;;;;5053494;28;20041;-69
2022/11/25 06:44:55;;;;;;;42.70;15.90;;;;;;;;;;5053259;28;20075;-69
2022/11/25 06:47:21;;;;;;;40.78;16.48;;;;;;;;;;5050902;28;20041;-69
2022/11/25 06:49:47;;;;;;;38.25;16.17;;;;;;;;;;5048309;28;20052;-68
2022/11/25 06:52:13;;;;;;;28.08;14.23;;;;;;;;;;5052209;28;20071;-69
2022/11/25 06:54:40;;;;;;;32.03;13.30;;;;;;;;;;5051778;28;20056;-68
2022/11/25 06:57:10;;;;;;;35.72;15.80;;;;;;;;;;5052646;28;20068;-69
2022/11/25 06:59:36;;;;;;;32.38;13.38;;;;;;;;;;5050528;28;22220;-69
2022/11/25 07:02:02;;;;;;;38.55;14.32;;;;;;;;;;5051546;28;20478;-71
2022/11/25 07:04:28;;;;;;;42.40;15.48;;;;;;;;;;5030799;28;20124;-70
2022/11/25 07:06:55;;;;;;;33.65;14.60;;;;;;;;;;5047895;28;20045;-69
2022/11/25 07:09:21;;;;;;;30.27;15.23;;;;;;;;;;5055441;28;20052;-70
2022/11/25 07:11:48;;;;;;;28.88;13.43;;;;;;;;;;5046265;28;20060;-70
2022/11/25 07:14:14;;;;;;;41.72;16.05;;;;;;;;;;5051772;28;20068;-71
2022/11/25 07:16:41;;;;;;;38.90;14.55;;;;;;;;;;5051767;28;20052;-70
2022/11/25 07:19:08;;;;;;;31.30;14.48;;;;;;;;;;5049288;28;20039;-69
2022/11/25 07:21:35;;;;;;;39.55;15.82;;;;;;;;;;5050482;28;20040;-69
2022/11/25 07:24:02;;;;;;;37.38;15.55;;;;;;;;;;5045523;28;20044;-69
2022/11/25 07:26:29;;;;;;;38.20;14.93;;;;;;;;;;5050703;28;20059;-69
2022/11/25 07:28:58;;;;;;;33.05;14.82;;;;;;;;;;5052778;28;20059;-69
2022/11/25 07:31:25;;;;;;;37.40;14.32;;;;;;;;;;5049519;28;20107;-69
2022/11/25 07:33:54;;;;;;;28.27;14.15;;;;;;;;;;5044921;28;20048;-69
2022/11/25 07:36:21;;;;;;;38.70;15.90;;;;;;;;;;5052898;28;20406;-69
2022/11/25 07:38:47;;;;;;;37.67;15.95;;;;;;;;;;5051519;28;20719;-69
2022/11/25 07:41:15;;;;;;;34.22;15.15;;;;;;;;;;5052875;28;20048;-69
2022/11/25 07:43:43;;;;;;;38.92;15.23;;;;;;;;;;5050148;28;20056;-69
2022/11/25 07:46:24;;;;;;;28.85;13.18;;;;;;;;;;5050147;28;20037;-70
2022/11/25 07:48:51;;;;;;;27.23;14.48;;;;;;;;;;5055030;28;20135;-69
2022/11/25 07:51:20;;;;;;;30.33;14.57;;;;;;;;;;5050189;28;20044;-69
2022/11/25 07:53:47;;;;;;;34.88;13.63;;;;;;;;;;5048941;28;20051;-69
2022/11/25 07:56:14;;;;;;;27.77;13.45;;;;;;;;;;5050401;28;20071;-70
2022/11/25 07:58:40;;;;;;;33.75;13.52;;;;;;;;;;5050277;28;20044;-70
2022/11/25 08:01:07;;;;;;;28.58;13.30;;;;;;;;;;5047114;28;21807;-69
2022/11/25 08:03:34;;;;;;;28.00;12.73;;;;;;;;;;5052698;28;20040;-69
2022/11/25 08:06:07;;;;;;;21.70;11.85;;;;;;;;;;5052600;28;20044;-69
2022/11/25 08:08:34;;;;;;;29.00;12.27;;;;;;;;;;5027648;28;20052;-69
2022/11/25 08:11:01;;;;;;;24.98;11.68;;;;;;;;;;5051647;28;20101;-69
2022/11/25 08:13:27;;;;;;;31.80;12.30;;;;;;;;;;5050916;28;20055;-70
2022/11/25 08:15:53;;;;;;;22.83;10.85;;;;;;;;;;5046789;28;20058;-69
2022/11/25 08:18:19;;;;;;;20.90;9.55;;;;;;;;;;5050516;28;20040;-69
2022/11/25 08:20:45;;;;;;;30.05;10.77;;;;;;;;;;5050734;28;20090;-69
2022/11/25 08:23:11;;;;;;;19.83;8.60;;;;;;;;;;5049332;28;20053;-69
2022/11/25 08:25:41;;;;;;;25.25;9.65;;;;;;;;;;5053646;28;20341;-69
2022/11/25 08:28:07;;;;;;;25.40;11.20;;;;;;;;;;5051002;28;20162;-68
2022/11/25 08:30:35;;;;;;;25.90;9.93;;;;;;;;;;5050180;28;20053;-69
2022/11/25 08:33:06;;;;;;;23.30;9.18;;;;;;;;;;5051642;28;20115;-69
2022/11/25 08:35:36;;;;;;;17.88;8.35;;;;;;;;;;5053280;28;20045;-69
2022/11/25 08:38:03;;;;;;;23.08;8.90;;;;;;;;;;5051465;28;20052;-68
2022/11/25 08:40:29;;;;;;;19.38;8.38;;;;;;;;;;5049679;28;20072;-69
2022/11/25 08:42:55;;;;;;;22.67;8.85;;;;;;;;;;5050252;28;20052;-69
2022/11/25 08:45:21;;;;;;;20.33;8.98;;;;;;;;;;5053775;28;20048;-69
2022/11/25 08:47:47;;;;;;;17.50;8.35;;;;;;;;;;5052461;28;20049;-68
2022/11/25 08:50:14;;;;;;;20.88;8.15;;;;;;;;;;5045282;28;20076;-67
2022/11/25 08:52:40;;;;;;;24.00;7.70;;;;;;;;;;5046859;28;20949;-68
2022/11/25 08:55:07;;;;;;;21.35;8.50;;;;;;;;;;5049281;28;20067;-68
2022/11/25 08:57:34;;;;;;;19.30;8.65;;;;;;;;;;5049576;28;20056;-70
2022/11/25 09:00:00;;;;;;;19.77;8.38;;;;;;;;;;5048643;28;20065;-69
2022/11/25 09:02:26;;;;;;;15.43;7.35;;;;;;;;;;5045901;28;22661;-69
2022/11/25 09:04:52;;;;;;;19.42;7.82;;;;;;;;;;5043949;28;20124;-69
2022/11/25 09:07:18;;;;;;;16.10;7.63;;;;;;;;;;5043253;28;20052;-69
2022/11/25 09:09:44;;;;;;;18.40;6.00;;;;;;;;;;5045949;28;20037;-69
2022/11/25 09:12:10;;;;;;;19.95;7.35;;;;;;;;;;5045202;28;20143;-69
2022/11/25 09:14:39;;;;;;;13.27;6.15;;;;;;;;;;5044930;28;20040;-68
2022/11/25 09:17:09;;;;;;;10.18;5.88;;;;;;;;;;5047009;28;20131;-68
2022/11/25 09:19:35;;;;;;;15.35;6.18;;;;;;;;;;5056277;28;20047;-68
2022/11/25 09:22:01;;;;;;;15.02;6.90;;;;;;;;;;5045879;28;20055;-69
2022/11/25 09:24:27;;;;;;;10.70;5.20;;;;;;;;;;5052250;28;20124;-69
2022/11/25 09:26:53;;;;;;;14.43;5.25;;;;;;;;;;5052122;28;20127;-68
2022/11/25 09:29:19;;;;;;;9.43;4.28;;;;;;;;;;5053211;28;20169;-68
2022/11/25 09:31:46;;;;;;;14.27;5.88;;;;;;;;;;5050319;28;20056;-68
2022/11/25 09:34:12;;;;;;;10.00;5.30;;;;;;;;;;5046482;28;20037;-67
2022/11/25 09:36:38;;;;;;;19.15;6.75;;;;;;;;;;5048917;28;20053;-68
2022/11/25 09:39:05;;;;;;;20.30;6.03;;;;;;;;;;5037546;28;20952;-68
2022/11/25 09:47:24;;;;;;;15.18;5.05;;;;;;;;;;5051609;28;20086;-68
2022/11/25 09:49:50;;;;;;;12.60;5.25;;;;;;;;;;5053937;28;20191;-68
2022/11/25 09:52:34;;;;;;;15.88;4.75;;;;;;;;;;5054456;28;20052;-68
2022/11/25 09:55:00;;;;;;;;;;;;;;;;;;5049637;28;20070;-67
2022/11/25 09:57:33;;;;;;;13.80;5.88;;;;;;;;;;5053539;28;19936;-68
2022/11/25 10:00:12;;;;;;;13.85;5.30;;;;;;;;;;5048564;28;20045;-67
2022/11/25 10:02:58;;;;;;;14.40;5.38;;;;;;;;;;5052081;28;20086;-68
2022/11/25 10:05:29;;;;;;;10.75;4.72;;;;;;;;;;5029165;28;20067;-68
2022/11/25 10:07:57;;;;;;;17.27;4.60;;;;;;;;;;5048982;28;20044;-67
2022/11/25 10:10:26;;;;;;;20.05;5.60;;;;;;;;;;5046112;28;20083;-67
2022/11/25 10:12:54;;;;;;;13.25;5.13;;;;;;;;;;5051426;28;20040;-67
2022/11/25 10:15:26;;;;;;;15.48;4.97;;;;;;;;;;5051934;28;20116;-67
2022/11/25 10:17:54;;;;;;;15.95;4.95;;;;;;;;;;5053573;28;20055;-67
2022/11/25 10:20:23;;;;;;;10.20;4.32;;;;;;;;;;5051302;28;20113;-66
2022/11/25 10:22:57;;;;;;;10.80;4.10;;;;;;;;;;5054108;28;20062;-67
2022/11/25 10:25:25;;;;;;;10.80;3.90;;;;;;;;;;5046423;28;20052;-66
2022/11/25 10:28:01;;;;;;;7.43;4.13;;;;;;;;;;5051477;28;20686;-66
2022/11/25 10:30:35;;;;;;;10.15;3.58;;;;;;;;;;5051670;28;20047;-67
2022/11/25 10:33:19;;;;;;;12.77;4.65;;;;;;;;;;5052472;28;20067;-67
2022/11/25 10:35:56;;;;;;;13.77;5.15;;;;;;;;;;5057852;28;20048;-63
2022/11/25 10:38:25;;;;;;;9.05;3.67;;;;;;;;;;5056849;28;20712;-67
2022/11/25 10:40:52;;;;;;;12.80;3.85;;;;;;;;;;5057397;28;20040;-67
2022/11/25 10:43:18;;;;;;;7.65;3.10;;;;;;;;;;5059121;28;20064;-67
2022/11/25 10:46:04;;;;;;;13.23;3.90;;;;;;;;;;5054261;28;20100;-67
2022/11/25 10:48:54;;;;;;;11.80;3.67;;;;;;;;;;5045341;28;20052;-66
2022/11/25 10:51:31;;;;;;;7.13;3.75;;;;;;;;;;5053749;28;20095;-65
2022/11/25 10:54:11;;;;;;;7.13;3.40;;;;;;;;;;5054512;28;20045;-67
2022/11/25 10:57:03;;;;;;;10.07;3.58;;;;;;;;;;5052113;28;20064;-66
2022/11/25 10:59:33;;;;;;;7.07;2.95;;;;;;;;;;5046386;28;20079;-66
2022/11/25 11:02:14;;;;;;;12.27;3.45;;;;;;;;;;5051489;28;21848;-66
2022/11/25 11:04:55;;;;;;;12.80;4.00;;;;;;;;;;5051163;28;20056;-66
2022/11/25 11:07:21;;;;;;;10.45;3.70;;;;;;;;;;5051729;28;21942;-66
2022/11/25 11:09:48;;;;;;;10.48;3.33;;;;;;;;;;5051688;28;20064;-65
2022/11/25 11:12:28;;;;;;;19.77;3.83;;;;;;;;;;5048959;28;21646;-66
2022/11/25 11:15:13;;;;;;;11.25;3.75;;;;;;;;;;5053497;28;20055;-65
2022/11/25 11:17:39;;;;;;;13.20;4.25;;;;;;;;;;5052084;28;20060;-66
2022/11/25 11:20:08;;;;;;;15.02;3.60;;;;;;;;;;5051166;28;20086;-66
2022/11/25 11:22:36;;;;;;;12.15;3.33;;;;;;;;;;5055004;28;20108;-67
2022/11/25 11:25:09;;;;;;;14.25;3.53;;;;;;;;;;5058202;28;20589;-65
2022/11/25 11:27:36;;;;;;;12.17;4.00;;;;;;;;;;5052909;28;20049;-66
2022/11/25 11:30:08;;;;;;;10.75;3.28;;;;;;;;;;5056740;28;20058;-65
2022/11/25 11:32:35;;;;;;;10.60;3.28;;;;;;;;;;5055749;28;20104;-65
2022/11/25 11:35:04;;;;;;;9.35;3.47;;;;;;;;;;5058287;28;20044;-66
2022/11/25 11:37:39;;;;;;;11.85;3.33;;;;;;;;;;5055101;28;20052;-66
2022/11/25 11:40:22;;;;;;;10.55;3.00;;;;;;;;;;5056817;28;20086;-64
2022/11/25 11:43:02;;;;;;;12.95;2.70;;;;;;;;;;5059047;28;20048;-65
2022/11/25 11:45:47;;;;;;;9.18;2.85;;;;;;;;;;5051978;28;20048;-66
2022/11/25 11:48:16;;;;;;;10.13;3.13;;;;;;;;;;5052270;28;20048;-66
2022/11/25 11:51:06;;;;;;;9.88;3.38;;;;;;;;;;5059540;28;20063;-65
2022/11/25 11:53:50;;;;;;;8.20;3.35;;;;;;;;;;5015840;28;20049;-67
2022/11/25 11:56:27;;;;;;;12.95;3.25;;;;;;;;;;5055739;28;20559;-67
2022/11/25 11:59:00;;;;;;;10.77;3.78;;;;;;;;;;5050869;28;20106;-65
2022/11/25 12:01:40;;;;;;;9.75;3.22;;;;;;;;;;5055049;28;22485;-65
2022/11/25 12:04:15;;;;;;;11.13;3.17;;;;;;;;;;5053052;28;20059;-66
2022/11/25 12:06:42;;;;;;;6.88;2.38;;;;;;;;;;5055251;28;20052;-67
2022/11/25 12:09:20;;;;;;;10.18;3.10;;;;;;;;;;5054694;28;20397;-66
2022/11/25 12:11:50;;;;;;;10.52;2.75;;;;;;;;;;5053645;28;20099;-66
2022/11/25 12:14:34;;;;;;;7.78;2.60;;;;;;;;;;5055786;28;20064;-65
2022/11/25 12:17:08;;;;;;;11.27;2.88;;;;;;;;;;5053398;28;20067;-66
2022/11/25 12:19:40;;;;;;;14.75;3.72;;;;;;;;;;5052795;28;20756;-66
2022/11/25 12:22:29;;;;;;;11.73;2.47;;;;;;;;;;5052956;28;20044;-66
2022/11/25 12:25:05;;;;;;;10.63;2.95;;;;;;;;;;5058767;28;20091;-66
2022/11/25 12:27:37;;;;;;;10.25;2.55;;;;;;;;;;5056602;28;20040;-66
2022/11/25 12:30:09;;;;;;;7.90;2.58;;;;;;;;;;5058165;28;20049;-66
2022/11/25 12:32:48;;;;;;;14.65;3.83;;;;;;;;;;5059006;28;20067;-66
2022/11/25 12:35:14;;;;;;;12.90;2.85;;;;;;;;;;5053400;28;20149;-66
2022/11/25 12:37:59;;;;;;;11.57;2.92;;;;;;;;;;5051907;28;20595;-67
2022/11/25 12:40:31;;;;;;;9.95;3.00;;;;;;;;;;5059587;28;20056;-67
2022/11/25 12:43:05;;;;;;;10.50;3.00;;;;;;;;;;5055633;28;20049;-65
2022/11/25 12:45:32;;;;;;;14.52;2.92;;;;;;;;;;5053255;28;20090;-67
2022/11/25 12:47:59;;;;;;;9.27;3.05;;;;;;;;;;5054891;28;20055;-65
2022/11/25 12:50:44;;;;;;;15.50;3.20;;;;;;;;;;5053671;28;20041;-66
2022/11/25 12:53:22;;;;;;;13.20;3.00;;;;;;;;;;5053842;28;20041;-66
2022/11/25 12:55:48;;;;;;;14.45;3.30;;;;;;;;;;5052752;28;20056;-65
2022/11/25 12:58:23;;;;;;;12.43;3.63;;;;;;;;;;5054203;28;20052;-66
2022/11/25 13:01:09;;;;;;;12.75;2.80;;;;;;;;;;5034953;28;20056;-66
2022/11/25 13:03:45;;;;;;;13.55;2.90;;;;;;;;;;5054703;28;20150;-66
2022/11/25 13:06:30;;;;;;;11.48;2.67;;;;;;;;;;5056085;28;20036;-67
2022/11/25 13:09:20;;;;;;;15.70;3.22;;;;;;;;;;5058176;28;20071;-67
2022/11/25 13:12:09;;;;;;;11.77;3.13;;;;;;;;;;5022255;28;20536;-67
2022/11/25 13:14:54;;;;;;;15.68;4.18;;;;;;;;;;5051908;28;20047;-66
2022/11/25 13:17:20;;;;;;;;;;;;;;;;;;5057855;28;20103;-67
2022/11/25 13:19:46;;;;;;;12.95;3.08;;;;;;;;;;5056208;28;19966;-66
2022/11/25 13:22:22;;;;;;;17.30;4.03;;;;;;;;;;5054037;28;20063;-67
2022/11/25 13:24:49;;;;;;;12.10;3.33;;;;;;;;;;5052830;28;20055;-67
2022/11/25 13:27:53;;;;;;;12.55;2.72;;;;;;;;;;5058364;28;20052;-68
2022/11/25 13:30:31;;;;;;;17.88;2.75;;;;;;;;;;5057871;28;20052;-67
2022/11/25 13:33:17;;;;;;;16.60;3.55;;;;;;;;;;5058954;28;20056;-66
2022/11/25 13:35:44;;;;;;;19.08;3.20;;;;;;;;;;5063746;28;20083;-66
2022/11/25 13:38:29;;;;;;;19.15;2.58;;;;;;;;;;5053635;28;20051;-67
2022/11/25 13:40:55;;;;;;;;;;;;;;;;;;5056235;28;20052;-67
2022/11/25 13:43:21;;;;;;;15.63;2.50;;;;;;;;;;5058790;28;19928;-67
2022/11/25 13:45:48;;;;;;;16.73;3.35;;;;;;;;;;5056464;28;20056;-67
2022/11/25 13:48:14;;;;;;;19.48;3.67;;;;;;;;;;5055384;28;20048;-67
2022/11/25 13:50:40;;;;;;;13.63;2.80;;;;;;;;;;5056777;28;20061;-68
2022/11/25 13:53:24;;;;;;;20.08;3.55;;;;;;;;;;5054321;28;20048;-67
2022/11/25 13:55:50;;;;;;;11.68;3.35;;;;;;;;;;5057766;28;20060;-66
2022/11/25 13:58:24;;;;;;;14.90;3.20;;;;;;;;;;5058751;28;20056;-67
2022/11/25 14:01:02;;;;;;;18.90;3.33;;;;;;;;;;5054950;28;20060;-67
2022/11/25 14:03:28;;;;;;;20.70;3.42;;;;;;;;;;5059159;28;20112;-67
2022/11/25 14:05:54;;;;;;;19.23;3.10;;;;;;;;;;5056972;28;20040;-67
2022/11/25 14:08:42;;;;;;;8.35;2.78;;;;;;;;;;5055236;28;20044;-67
2022/11/25 14:11:23;;;;;;;18.92;2.85;;;;;;;;;;5053260;28;22770;-68
2022/11/25 14:13:49;;;;;;;22.95;3.67;;;;;;;;;;5057806;28;20051;-67
2022/11/25 14:16:22;;;;;;;15.45;2.67;;;;;;;;;;5057530;28;20180;-67
2022/11/25 14:19:07;;;;;;;23.80;3.40;;;;;;;;;;5054949;28;20045;-68
2022/11/25 14:21:51;;;;;;;16.50;3.47;;;;;;;;;;5056045;28;20052;-68
2022/11/25 14:24:17;;;;;;;;;;;;;;;;;;5063794;28;20044;-68
2022/11/25 14:26:44;;;;;;;23.55;3.67;;;;;;;;;;5053916;28;19933;-68
2022/11/25 14:29:13;;;;;;;12.88;2.75;;;;;;;;;;5057650;28;20399;-68
2022/11/25 14:31:41;;;;;;;17.17;3.30;;;;;;;;;;5054769;28;20105;-68
2022/11/25 14:34:17;;;;;;;20.67;3.55;;;;;;;;;;5052864;28;20048;-68
2022/11/25 14:36:54;;;;;;;20.73;3.25;;;;;;;;;;5046539;28;20483;-66
2022/11/25 14:39:25;;;;;;;19.20;4.03;;;;;;;;;;5054487;28;20049;-66
2022/11/25 14:41:54;;;;;;;24.25;3.20;;;;;;;;;;5055594;28;20048;-66
2022/11/25 14:44:24;;;;;;;18.00;3.28;;;;;;;;;;5050811;28;20048;-66
2022/11/25 14:46:51;;;;;;;12.27;2.45;;;;;;;;;;5060025;28;20646;-66
2022/11/25 14:49:17;;;;;;;17.23;2.78;;;;;;;;;;5045920;28;20067;-66
2022/11/25 14:51:46;;;;;;;15.38;3.58;;;;;;;;;;5050512;28;20094;-65
2022/11/25 14:54:12;;;;;;;20.85;4.10;;;;;;;;;;5051773;28;20060;-66
2022/11/25 14:56:39;;;;;;;15.88;3.25;;;;;;;;;;5047344;28;20075;-66